createdAt,value
2017-12-29T00:00:09.114Z,79.3
2017-12-29T00:01:19.265Z,79.68
2017-12-29T00:02:29.573Z,79.58
2017-12-29T00:03:39.522Z,79.58
2017-12-29T00:04:49.657Z,79.68
2017-12-29T00:05:59.802Z,79.77
2017-12-29T00:07:11.120Z,79.68
2017-12-29T00:08:21.340Z,79.68
2017-12-29T00:09:31.505Z,79.58
2017-12-29T00:10:41.630Z,79.49
2017-12-29T00:11:51.888Z,79.49
2017-12-29T00:13:02.008Z,79.49
2017-12-29T00:14:12.162Z,79.49
2017-12-29T00:15:22.337Z,79.58
2017-12-29T00:16:32.450Z,79.68
2017-12-29T00:17:42.592Z,79.68
2017-12-29T00:18:52.460Z,79.68
2017-12-29T00:20:02.583Z,79.68
2017-12-29T00:21:12.742Z,79.68
2017-12-29T00:22:22.962Z,79.68
2017-12-29T00:23:33.350Z,79.49
2017-12-29T00:24:43.356Z,79.15
2017-12-29T00:25:53.217Z,79.25
2017-12-29T00:27:03.325Z,79.21
2017-12-29T00:28:13.426Z,79.11
2017-12-29T00:29:23.560Z,79.11
2017-12-29T00:30:33.659Z,79.21
2017-12-29T00:31:43.555Z,78.83
2017-12-29T00:32:53.669Z,78.92
2017-12-29T00:34:03.781Z,79.02
2017-12-29T00:35:13.644Z,79.3
2017-12-29T00:36:23.626Z,79.21
2017-12-29T00:37:33.852Z,79.02
2017-12-29T00:38:44.033Z,79.39
2017-12-29T00:39:54.164Z,79.3
2017-12-29T00:41:05.254Z,79.3
2017-12-29T00:42:15.409Z,79.3
2017-12-29T00:43:25.512Z,79.39
2017-12-29T00:44:35.644Z,79.02
2017-12-29T00:45:45.766Z,79.21
2017-12-29T00:46:55.883Z,79.3
2017-12-29T00:48:05.781Z,79.39
2017-12-29T00:49:15.944Z,79.39
2017-12-29T00:50:26.064Z,79.21
2017-12-29T00:51:36.161Z,79.15
2017-12-29T00:52:46.284Z,79.11
2017-12-29T00:53:56.440Z,79.02
2017-12-29T00:55:06.822Z,79.68
2017-12-29T00:56:16.970Z,79.87
2017-12-29T00:57:27.140Z,79.68
2017-12-29T00:58:37.278Z,79.77
2017-12-29T00:59:47.188Z,79.68
2017-12-29T01:00:57.383Z,79.58
2017-12-29T01:02:07.592Z,79.87
2017-12-29T01:03:17.813Z,79.77
2017-12-29T01:04:28.038Z,79.58
2017-12-29T01:05:38.168Z,79.3
2017-12-29T01:06:48.064Z,79.68
2017-12-29T01:07:58.196Z,79.77
2017-12-29T01:09:08.377Z,79.58
2017-12-29T01:10:18.510Z,79.68
2017-12-29T01:11:28.718Z,79.68
2017-12-29T01:12:38.574Z,79.68
2017-12-29T01:13:48.379Z,79.49
2017-12-29T01:14:58.584Z,79.39
2017-12-29T01:16:08.710Z,79.68
2017-12-29T01:17:18.958Z,79.58
2017-12-29T01:18:28.818Z,79.96
2017-12-29T01:19:38.957Z,79.96
2017-12-29T01:20:49.158Z,80.15
2017-12-29T01:21:59.413Z,80.06
2017-12-29T01:23:09.641Z,79.87
2017-12-29T01:24:19.783Z,79.96
2017-12-29T01:25:29.892Z,80.44
2017-12-29T01:26:40.043Z,80.34
2017-12-29T01:27:50.162Z,80.34
2017-12-29T01:29:00.263Z,80.34
2017-12-29T01:30:10.411Z,80.44
2017-12-29T01:31:20.537Z,80.25
2017-12-29T01:32:30.649Z,80.44
2017-12-29T01:33:40.479Z,80.63
2017-12-29T01:34:50.752Z,80.44
2017-12-29T01:36:00.609Z,80.63
2017-12-29T01:37:10.364Z,80.53
2017-12-29T01:38:20.503Z,80.15
2017-12-29T01:39:30.621Z,80.15
2017-12-29T01:40:40.609Z,80.25
2017-12-29T01:41:50.722Z,80.25
2017-12-29T01:43:00.912Z,80.15
2017-12-29T01:44:11.035Z,80.25
2017-12-29T01:45:20.627Z,80.34
2017-12-29T01:46:30.683Z,80.15
2017-12-29T01:47:40.560Z,80.15
2017-12-29T01:48:50.667Z,80.53
2017-12-29T01:50:00.800Z,80.34
2017-12-29T01:51:11.036Z,80.25
2017-12-29T01:52:20.541Z,80.44
2017-12-29T01:53:30.975Z,80.44
2017-12-29T01:54:40.852Z,80.34
2017-12-29T01:55:51.012Z,80.25
2017-12-29T01:57:01.157Z,80.34
2017-12-29T01:58:11.437Z,80.15
2017-12-29T01:59:21.623Z,80.15
2017-12-29T02:00:31.455Z,80.15
2017-12-29T02:01:41.613Z,80.06
2017-12-29T02:02:51.706Z,80.06
2017-12-29T02:04:01.926Z,80.15
2017-12-29T02:05:12.132Z,80.25
2017-12-29T02:06:22.253Z,80.15
2017-12-29T02:07:32.358Z,80.25
2017-12-29T02:08:42.458Z,80.34
2017-12-29T02:09:52.669Z,80.34
2017-12-29T02:11:02.502Z,79.96
2017-12-29T02:12:12.642Z,80.15
2017-12-29T02:13:22.812Z,80.82
2017-12-29T02:14:32.657Z,80.82
2017-12-29T02:15:42.512Z,80.82
2017-12-29T02:16:52.620Z,80.72
2017-12-29T02:18:02.818Z,80.72
2017-12-29T02:19:12.961Z,80.87
2017-12-29T02:20:22.809Z,81.1
2017-12-29T02:21:32.931Z,80.96
2017-12-29T02:22:42.778Z,81.15
2017-12-29T02:23:53.842Z,80.96
2017-12-29T02:25:03.717Z,81.01
2017-12-29T02:26:13.871Z,80.87
2017-12-29T02:27:24.009Z,81.06
2017-12-29T02:28:34.133Z,80.96
2017-12-29T02:29:44.267Z,80.96
2017-12-29T02:30:54.117Z,81.06
2017-12-29T02:32:04.097Z,80.96
2017-12-29T02:33:14.193Z,80.96
2017-12-29T02:34:24.292Z,80.87
2017-12-29T02:35:34.497Z,80.77
2017-12-29T02:36:44.727Z,81.53
2017-12-29T02:37:54.899Z,80.87
2017-12-29T02:39:04.514Z,81.44
2017-12-29T02:40:14.600Z,81.34
2017-12-29T02:41:24.715Z,81.25
2017-12-29T02:42:35.534Z,81.25
2017-12-29T02:43:45.646Z,81.34
2017-12-29T02:44:55.804Z,81.44
2017-12-29T02:46:06.014Z,81.44
2017-12-29T02:47:16.249Z,81.44
2017-12-29T02:48:26.419Z,81.34
2017-12-29T02:49:36.554Z,81.34
2017-12-29T02:50:46.427Z,81.82
2017-12-29T02:51:56.583Z,82.29
2017-12-29T02:53:06.596Z,81.44
2017-12-29T02:54:16.445Z,82.1
2017-12-29T02:55:26.555Z,81.82
2017-12-29T02:56:36.662Z,81.82
2017-12-29T02:57:46.817Z,81.92
2017-12-29T02:58:57.063Z,81.82
2017-12-29T03:00:08.135Z,81.82
2017-12-29T03:01:18.366Z,81.82
2017-12-29T03:02:28.220Z,82.01
2017-12-29T03:03:38.363Z,81.82
2017-12-29T03:04:48.489Z,82.2
2017-12-29T03:05:58.585Z,81.92
2017-12-29T03:07:08.680Z,81.92
2017-12-29T03:08:18.783Z,81.82
2017-12-29T03:09:28.621Z,82.01
2017-12-29T03:10:38.209Z,82.01
2017-12-29T03:11:48.447Z,81.92
2017-12-29T03:12:58.648Z,81.82
2017-12-29T03:14:09.025Z,81.72
2017-12-29T03:15:18.926Z,82.1
2017-12-29T03:16:29.029Z,82.2
2017-12-29T03:17:39.181Z,82.2
2017-12-29T03:18:49.357Z,82.48
2017-12-29T03:19:59.451Z,82.1
2017-12-29T03:21:09.561Z,82.2
2017-12-29T03:22:19.677Z,82.1
2017-12-29T03:23:29.839Z,82.2
2017-12-29T03:24:40.011Z,82.01
2017-12-29T03:25:50.204Z,82.1
2017-12-29T03:27:00.405Z,82.01
2017-12-29T03:28:10.532Z,82.1
2017-12-29T03:29:20.506Z,81.92
2017-12-29T03:30:30.619Z,82.1
2017-12-29T03:31:40.246Z,82.01
2017-12-29T03:32:50.187Z,82.1
2017-12-29T03:34:00.413Z,82.2
2017-12-29T03:35:10.522Z,82.1
2017-12-29T03:36:20.794Z,82.01
2017-12-29T03:37:30.975Z,82.01
2017-12-29T03:38:41.200Z,82.1
2017-12-29T03:39:51.297Z,82.2
2017-12-29T03:41:01.303Z,82.2
2017-12-29T03:42:11.425Z,82.1
2017-12-29T03:43:21.657Z,82.39
2017-12-29T03:44:31.812Z,82.01
2017-12-29T03:45:41.925Z,82.1
2017-12-29T03:46:52.029Z,82.1
2017-12-29T03:48:02.162Z,82.1
2017-12-29T03:49:12.248Z,82.2
2017-12-29T03:50:22.393Z,82.1
2017-12-29T03:51:32.674Z,82.1
2017-12-29T03:52:42.803Z,82.2
2017-12-29T03:53:52.914Z,82.2
2017-12-29T03:55:03.049Z,82.01
2017-12-29T03:56:13.176Z,82.1
2017-12-29T03:57:23.365Z,82.01
2017-12-29T03:58:33.475Z,81.92
2017-12-29T03:59:43.633Z,82.39
2017-12-29T04:00:53.231Z,82.29
2017-12-29T04:02:03.079Z,82.1
2017-12-29T04:03:13.176Z,81.82
2017-12-29T04:04:23.384Z,82.01
2017-12-29T04:05:33.498Z,82.1
2017-12-29T04:06:43.597Z,82.1
2017-12-29T04:07:53.697Z,82.1
2017-12-29T04:09:03.825Z,82.01
2017-12-29T04:10:13.923Z,82.29
2017-12-29T04:11:23.753Z,82.1
2017-12-29T04:12:33.593Z,82.2
2017-12-29T04:13:43.708Z,82.2
2017-12-29T04:14:54.623Z,82.2
2017-12-29T04:16:04.809Z,82.2
2017-12-29T04:17:14.664Z,82.1
2017-12-29T04:18:24.843Z,82.2
2017-12-29T04:19:35.067Z,82.2
2017-12-29T04:20:45.175Z,82.2
2017-12-29T04:21:55.046Z,81.92
2017-12-29T04:23:04.893Z,82.1
2017-12-29T04:24:14.750Z,82.2
2017-12-29T04:25:24.855Z,81.92
2017-12-29T04:26:34.971Z,82.2
2017-12-29T04:27:45.119Z,82.48
2017-12-29T04:28:55.225Z,82.01
2017-12-29T04:30:05.350Z,81.92
2017-12-29T04:31:15.456Z,82.2
2017-12-29T04:32:25.564Z,82.29
2017-12-29T04:33:35.670Z,82.29
2017-12-29T04:34:45.750Z,82.1
2017-12-29T04:35:55.851Z,82.29
2017-12-29T04:37:05.964Z,82.1
2017-12-29T04:38:16.060Z,82.1
2017-12-29T04:39:26.215Z,82.1
2017-12-29T04:40:36.056Z,82.1
2017-12-29T04:41:45.950Z,82.1
2017-12-29T04:42:55.825Z,82.1
2017-12-29T04:44:05.927Z,82.2
2017-12-29T04:45:15.671Z,82.29
2017-12-29T04:46:25.883Z,82.1
2017-12-29T04:47:36.090Z,82.1
2017-12-29T04:48:46.250Z,82.01
2017-12-29T04:49:56.624Z,81.63
2017-12-29T04:51:06.110Z,82.2
2017-12-29T04:52:16.399Z,82.1
2017-12-29T04:53:26.576Z,82.29
2017-12-29T04:54:36.808Z,82.2
2017-12-29T04:55:47.067Z,82.29
2017-12-29T04:56:57.278Z,81.63
2017-12-29T04:58:07.390Z,82.2
2017-12-29T04:59:17.537Z,82.1
2017-12-29T05:00:27.632Z,82.01
2017-12-29T05:01:37.732Z,82.2
2017-12-29T05:02:48.840Z,82.48
2017-12-29T05:03:59.031Z,82.01
2017-12-29T05:05:09.153Z,82.1
2017-12-29T05:06:19.251Z,81.92
2017-12-29T05:07:29.362Z,81.82
2017-12-29T05:08:39.825Z,82.1
2017-12-29T05:09:49.934Z,82.1
2017-12-29T05:11:00.016Z,82.1
2017-12-29T05:12:10.126Z,82.1
2017-12-29T05:13:20.237Z,82.2
2017-12-29T05:14:30.352Z,82.01
2017-12-29T05:15:40.452Z,82.2
2017-12-29T05:16:50.367Z,81.92
2017-12-29T05:18:00.450Z,82.1
2017-12-29T05:19:10.562Z,82.1
2017-12-29T05:20:20.723Z,82.2
2017-12-29T05:21:30.889Z,81.72
2017-12-29T05:22:40.741Z,82.2
2017-12-29T05:23:50.895Z,82.01
2017-12-29T05:25:00.737Z,82.2
2017-12-29T05:26:10.618Z,82.29
2017-12-29T05:27:20.690Z,82.29
2017-12-29T05:28:30.800Z,82.1
2017-12-29T05:29:40.911Z,82.1
2017-12-29T05:30:51.010Z,82.1
2017-12-29T05:32:01.130Z,81.92
2017-12-29T05:33:11.298Z,82.01
2017-12-29T05:34:21.049Z,82.29
2017-12-29T05:35:31.313Z,82.2
2017-12-29T05:36:41.155Z,82.1
2017-12-29T05:37:50.759Z,82.01
2017-12-29T05:39:00.928Z,82.01
2017-12-29T05:40:11.034Z,82.01
2017-12-29T05:41:21.224Z,81.82
2017-12-29T05:42:31.311Z,81.92
2017-12-29T05:43:41.449Z,81.72
2017-12-29T05:44:51.565Z,81.82
2017-12-29T05:46:01.735Z,81.82
2017-12-29T05:47:11.842Z,82.01
2017-12-29T05:48:21.439Z,82.1
2017-12-29T05:49:31.286Z,82.2
2017-12-29T05:50:42.372Z,81.72
2017-12-29T05:51:52.481Z,81.72
2017-12-29T05:53:02.599Z,82.2
2017-12-29T05:54:12.770Z,81.92
2017-12-29T05:55:22.933Z,82.01
2017-12-29T05:56:33.216Z,82.01
2017-12-29T05:57:43.388Z,81.72
2017-12-29T05:58:53.483Z,81.72
2017-12-29T06:00:03.641Z,81.92
2017-12-29T06:01:13.483Z,81.92
2017-12-29T06:02:23.701Z,81.82
2017-12-29T06:03:33.825Z,81.92
2017-12-29T06:04:43.925Z,81.72
2017-12-29T06:05:54.120Z,81.82
2017-12-29T06:07:03.997Z,81.72
2017-12-29T06:08:13.508Z,81.92
2017-12-29T06:09:23.383Z,81.92
2017-12-29T06:10:33.502Z,82.01
2017-12-29T06:11:43.689Z,82.01
2017-12-29T06:12:54.812Z,81.92
2017-12-29T06:14:04.939Z,81.92
2017-12-29T06:15:15.241Z,81.87
2017-12-29T06:16:25.360Z,81.92
2017-12-29T06:17:35.473Z,81.96
2017-12-29T06:18:45.313Z,82.06
2017-12-29T06:19:55.409Z,82.39
2017-12-29T06:21:05.537Z,82.15
2017-12-29T06:22:15.674Z,82.34
2017-12-29T06:23:25.787Z,82.34
2017-12-29T06:24:35.903Z,82.2
2017-12-29T06:25:46.008Z,81.82
2017-12-29T06:26:56.222Z,82.25
2017-12-29T06:28:06.372Z,82.34
2017-12-29T06:29:16.575Z,82.15
2017-12-29T06:30:26.518Z,82.25
2017-12-29T06:31:36.633Z,82.34
2017-12-29T06:32:46.756Z,82.15
2017-12-29T06:33:56.894Z,82.06
2017-12-29T06:35:07.028Z,82.2
2017-12-29T06:36:17.129Z,82.25
2017-12-29T06:37:27.249Z,82.2
2017-12-29T06:38:36.789Z,82.15
2017-12-29T06:39:46.763Z,82.1
2017-12-29T06:40:56.863Z,82.34
2017-12-29T06:42:06.758Z,82.01
2017-12-29T06:43:16.925Z,82.01
2017-12-29T06:44:27.115Z,81.96
2017-12-29T06:45:37.247Z,82.1
2017-12-29T06:46:47.352Z,82.06
2017-12-29T06:47:57.573Z,82.01
2017-12-29T06:49:07.663Z,82.01
2017-12-29T06:50:17.773Z,81.87
2017-12-29T06:51:27.611Z,82.06
2017-12-29T06:52:37.749Z,81.87
2017-12-29T06:53:47.836Z,82.06
2017-12-29T06:54:57.936Z,81.87
2017-12-29T06:56:08.079Z,81.68
2017-12-29T06:57:18.316Z,81.77
2017-12-29T06:58:29.385Z,81.96
2017-12-29T06:59:39.485Z,81.96
2017-12-29T07:00:49.378Z,82.15
2017-12-29T07:01:59.468Z,82.06
2017-12-29T07:03:09.576Z,82.44
2017-12-29T07:04:19.730Z,81.87
2017-12-29T07:05:29.837Z,82.06
2017-12-29T07:06:39.822Z,82.25
2017-12-29T07:07:50.044Z,81.77
2017-12-29T07:09:00.282Z,82.06
2017-12-29T07:10:10.436Z,81.77
2017-12-29T07:11:20.298Z,82.06
2017-12-29T07:12:30.398Z,81.87
2017-12-29T07:13:40.532Z,81.96
2017-12-29T07:14:50.413Z,82.15
2017-12-29T07:16:00.624Z,82.25
2017-12-29T07:17:10.390Z,82.15
2017-12-29T07:18:20.495Z,82.25
2017-12-29T07:19:30.666Z,82.25
2017-12-29T07:20:40.887Z,82.15
2017-12-29T07:21:52.079Z,81.68
2017-12-29T07:23:02.173Z,82.06
2017-12-29T07:24:12.304Z,82.25
2017-12-29T07:25:22.412Z,82.06
2017-12-29T07:26:32.648Z,82.15
2017-12-29T07:27:42.817Z,81.77
2017-12-29T07:28:52.935Z,82.15
2017-12-29T07:30:03.136Z,82.06
2017-12-29T07:31:13.099Z,82.25
2017-12-29T07:32:22.937Z,82.15
2017-12-29T07:33:33.068Z,81.96
2017-12-29T07:34:42.932Z,82.15
2017-12-29T07:35:53.050Z,81.96
2017-12-29T07:37:03.147Z,82.15
2017-12-29T07:38:13.042Z,81.87
2017-12-29T07:39:23.138Z,82.34
2017-12-29T07:40:33.232Z,81.96
2017-12-29T07:41:43.442Z,81.96
2017-12-29T07:42:53.305Z,82.06
2017-12-29T07:44:03.499Z,82.06
2017-12-29T07:45:13.622Z,82.25
2017-12-29T07:46:23.865Z,82.82
2017-12-29T07:47:33.783Z,82.53
2017-12-29T07:48:43.962Z,82.72
2017-12-29T07:49:54.145Z,82.53
2017-12-29T07:51:04.414Z,82.82
2017-12-29T07:52:14.563Z,82.82
2017-12-29T07:53:24.456Z,82.86
2017-12-29T07:54:34.590Z,82.39
2017-12-29T07:55:44.706Z,82.1
2017-12-29T07:56:55.863Z,82.01
2017-12-29T07:58:05.996Z,82.2
2017-12-29T07:59:16.095Z,82.29
2017-12-29T08:00:26.222Z,82.2
2017-12-29T08:01:36.401Z,81.92
2017-12-29T08:02:46.552Z,82.01
2017-12-29T08:03:56.710Z,81.92
2017-12-29T08:05:06.569Z,81.92
2017-12-29T08:06:16.808Z,81.72
2017-12-29T08:07:26.943Z,81.92
2017-12-29T08:08:37.149Z,81.72
2017-12-29T08:09:47.345Z,81.92
2017-12-29T08:10:57.488Z,82.01
2017-12-29T08:12:07.247Z,82.1
2017-12-29T08:13:17.371Z,81.82
2017-12-29T08:14:27.497Z,81.92
2017-12-29T08:15:37.637Z,82.39
2017-12-29T08:16:47.764Z,82.29
2017-12-29T08:17:57.607Z,82.2
2017-12-29T08:19:07.826Z,82.2
2017-12-29T08:20:17.973Z,82.1
2017-12-29T08:21:28.256Z,82.29
2017-12-29T08:22:38.427Z,82.2
2017-12-29T08:23:48.629Z,82.2
2017-12-29T08:24:58.843Z,82.2
2017-12-29T08:26:08.954Z,82.2
2017-12-29T08:27:18.813Z,82.2
2017-12-29T08:28:28.958Z,82.29
2017-12-29T08:29:39.164Z,81.92
2017-12-29T08:30:49.394Z,81.95
2017-12-29T08:31:59.550Z,82.52
2017-12-29T08:33:09.478Z,81.86
2017-12-29T08:34:19.583Z,81.95
2017-12-29T08:35:29.881Z,81.95
2017-12-29T08:36:39.997Z,81.76
2017-12-29T08:37:49.853Z,82.05
2017-12-29T08:39:00.058Z,81.86
2017-12-29T08:40:10.168Z,82.33
2017-12-29T08:41:20.333Z,81.57
2017-12-29T08:42:30.672Z,81.29
2017-12-29T08:43:40.885Z,81.38
2017-12-29T08:44:51.022Z,81.48
2017-12-29T08:46:00.881Z,81.48
2017-12-29T08:47:11.055Z,80.91
2017-12-29T08:48:21.271Z,81.38
2017-12-29T08:49:31.113Z,81.38
2017-12-29T08:50:41.230Z,81.38
2017-12-29T08:51:51.359Z,81.2
2017-12-29T08:53:01.482Z,81.29
2017-12-29T08:54:11.196Z,81.2
2017-12-29T08:55:22.300Z,81.29
2017-12-29T08:56:32.426Z,81.29
2017-12-29T08:57:42.561Z,81.48
2017-12-29T08:58:52.435Z,81.38
2017-12-29T09:00:02.615Z,81.57
2017-12-29T09:01:12.471Z,81.2
2017-12-29T09:02:22.619Z,81.2
2017-12-29T09:03:32.497Z,81.38
2017-12-29T09:04:42.607Z,81.38
2017-12-29T09:05:52.513Z,81.38
2017-12-29T09:07:02.393Z,81.29
2017-12-29T09:08:12.568Z,81.01
2017-12-29T09:09:22.682Z,80.91
2017-12-29T09:10:32.828Z,80.72
2017-12-29T09:11:42.959Z,81.01
2017-12-29T09:12:53.063Z,80.95
2017-12-29T09:14:02.920Z,80.95
2017-12-29T09:15:13.053Z,80.95
2017-12-29T09:16:23.252Z,80.86
2017-12-29T09:17:33.444Z,80.48
2017-12-29T09:18:43.221Z,80.67
2017-12-29T09:19:53.475Z,80.95
2017-12-29T09:21:03.582Z,79.91
2017-12-29T09:22:13.710Z,80
2017-12-29T09:23:23.587Z,80.38
2017-12-29T09:24:33.762Z,80
2017-12-29T09:25:43.941Z,80.19
2017-12-29T09:26:54.132Z,80.38
2017-12-29T09:28:04.240Z,80.38
2017-12-29T09:29:14.185Z,80.48
2017-12-29T09:30:24.443Z,80.1
2017-12-29T09:31:34.650Z,80.38
2017-12-29T09:32:44.518Z,79.72
2017-12-29T09:33:55.620Z,80.1
2017-12-29T09:35:05.798Z,80.1
2017-12-29T09:36:15.660Z,79.72
2017-12-29T09:37:25.781Z,79.53
2017-12-29T09:38:35.921Z,79.53
2017-12-29T09:39:46.063Z,79.72
2017-12-29T09:40:56.163Z,79.63
2017-12-29T09:42:06.098Z,79.91
2017-12-29T09:43:16.242Z,79.34
2017-12-29T09:44:26.385Z,79.28
2017-12-29T09:45:36.527Z,79.1
2017-12-29T09:46:46.665Z,79.1
2017-12-29T09:47:56.789Z,78.53
2017-12-29T09:49:06.653Z,77.86
2017-12-29T09:50:16.800Z,77.96
2017-12-29T09:51:26.943Z,78.24
2017-12-29T09:52:37.132Z,78.34
2017-12-29T09:53:47.378Z,77.86
2017-12-29T09:54:57.635Z,77.86
2017-12-29T09:56:07.905Z,77.67
2017-12-29T09:57:17.801Z,76.92
2017-12-29T09:58:27.922Z,76.86
2017-12-29T09:59:38.064Z,76.95
2017-12-29T10:00:48.235Z,76.86
2017-12-29T10:01:58.546Z,76.39
2017-12-29T10:03:08.817Z,75.85
2017-12-29T10:04:18.939Z,75.51
2017-12-29T10:05:29.114Z,73.93
2017-12-29T10:06:39.322Z,74.35
2017-12-29T10:07:48.970Z,73.69
2017-12-29T10:08:59.359Z,72.67
2017-12-29T10:10:09.220Z,69.95
2017-12-29T10:11:19.328Z,70.43
2017-12-29T10:12:29.485Z,69.51
2017-12-29T10:13:39.689Z,68.65
2017-12-29T10:14:49.829Z,65.92
2017-12-29T10:15:59.981Z,65.64
2017-12-29T10:17:10.113Z,65.64
2017-12-29T10:18:20.264Z,65.55
2017-12-29T10:19:30.116Z,65.64
2017-12-29T10:20:40.268Z,65.51
2017-12-29T10:21:50.452Z,65.7
2017-12-29T10:23:00.301Z,65.51
2017-12-29T10:24:10.198Z,65.13
2017-12-29T10:25:20.346Z,63.83
2017-12-29T10:26:30.274Z,63.92
2017-12-29T10:27:40.495Z,64.21
2017-12-29T10:28:50.677Z,63.35
2017-12-29T10:30:00.654Z,63.2
2017-12-29T10:31:10.699Z,60.52
2017-12-29T10:32:20.826Z,61.13
2017-12-29T10:33:30.967Z,60.65
2017-12-29T10:34:41.846Z,60.55
2017-12-29T10:35:52.061Z,60.55
2017-12-29T10:37:02.318Z,56.38
2017-12-29T10:38:13.194Z,57.72
2017-12-29T10:39:23.124Z,58.29
2017-12-29T10:40:33.383Z,58.77
2017-12-29T10:41:43.619Z,58.48
2017-12-29T10:42:53.754Z,58.39
2017-12-29T10:44:04.078Z,58.01
2017-12-29T10:45:14.237Z,56.96
2017-12-29T10:46:24.403Z,55.34
2017-12-29T10:47:34.558Z,56.1
2017-12-29T10:48:44.689Z,56.01
2017-12-29T10:49:54.838Z,56.67
2017-12-29T10:51:04.971Z,56.87
2017-12-29T10:52:15.183Z,55.34
2017-12-29T10:53:25.401Z,56.29
2017-12-29T10:54:35.524Z,54
2017-12-29T10:55:45.742Z,55.08
2017-12-29T10:56:55.948Z,55.46
2017-12-29T10:58:06.209Z,54.6
2017-12-29T10:59:16.391Z,54.77
2017-12-29T11:00:26.288Z,55.34
2017-12-29T11:01:36.434Z,55.98
2017-12-29T11:02:46.552Z,56.14
2017-12-29T11:03:57.428Z,56.87
2017-12-29T11:05:07.091Z,56.94
2017-12-29T11:06:17.238Z,57.99
2017-12-29T11:07:27.589Z,58.44
2017-12-29T11:08:37.797Z,58.81
2017-12-29T11:09:48.079Z,59.74
2017-12-29T11:10:58.230Z,59.83
2017-12-29T11:12:08.401Z,60.12
2017-12-29T11:13:18.166Z,60.31
2017-12-29T11:14:28.075Z,60.78
2017-12-29T11:15:38.099Z,60.44
2017-12-29T11:16:47.888Z,59.86
2017-12-29T11:17:57.798Z,60.24
2017-12-29T11:19:07.935Z,60.27
2017-12-29T11:20:18.089Z,59.42
2017-12-29T11:21:28.205Z,59.32
2017-12-29T11:22:38.360Z,59.06
2017-12-29T11:23:48.258Z,58.97
2017-12-29T11:24:58.143Z,58.59
2017-12-29T11:26:08.354Z,57.38
2017-12-29T11:27:18.504Z,57
2017-12-29T11:28:28.711Z,56.97
2017-12-29T11:29:38.508Z,57.73
2017-12-29T11:30:49.610Z,56.9
2017-12-29T11:31:59.758Z,56.68
2017-12-29T11:33:09.880Z,55.83
2017-12-29T11:34:20.082Z,56.56
2017-12-29T11:35:30.253Z,57.32
2017-12-29T11:36:40.394Z,57.8
2017-12-29T11:37:50.528Z,57.7
2017-12-29T11:39:00.720Z,57.51
2017-12-29T11:40:10.853Z,57.8
2017-12-29T11:41:21.048Z,57.7
2017-12-29T11:42:31.318Z,57.7
2017-12-29T11:43:41.224Z,58.08
2017-12-29T11:44:51.402Z,58.47
2017-12-29T11:46:01.555Z,57.82
2017-12-29T11:47:11.675Z,57.64
2017-12-29T11:48:21.824Z,57.35
2017-12-29T11:49:32.131Z,57.64
2017-12-29T11:50:42.391Z,57.16
2017-12-29T11:51:52.566Z,57.35
2017-12-29T11:53:02.490Z,57.16
2017-12-29T11:54:12.625Z,57.26
2017-12-29T11:55:22.776Z,56.3
2017-12-29T11:56:32.918Z,56.37
2017-12-29T11:57:43.121Z,56.94
2017-12-29T11:58:53.361Z,56.44
2017-12-29T12:00:03.286Z,56.63
2017-12-29T12:01:13.421Z,57.2
2017-12-29T12:02:23.545Z,56.82
2017-12-29T12:03:33.698Z,56.82
2017-12-29T12:04:43.833Z,57.45
2017-12-29T12:05:53.976Z,57.77
2017-12-29T12:07:04.126Z,58.03
2017-12-29T12:08:14.313Z,57.74
2017-12-29T12:09:24.503Z,58.12
2017-12-29T12:10:34.399Z,57.74
2017-12-29T12:11:44.568Z,57.93
2017-12-29T12:12:54.744Z,58.12
2017-12-29T12:14:04.871Z,58.37
2017-12-29T12:15:15.105Z,58.85
2017-12-29T12:16:25.386Z,58.47
2017-12-29T12:17:35.547Z,58.85
2017-12-29T12:18:45.331Z,58.85
2017-12-29T12:19:55.188Z,58.85
2017-12-29T12:21:05.356Z,59.05
2017-12-29T12:22:15.508Z,59.33
2017-12-29T12:23:25.406Z,59.33
2017-12-29T12:24:35.578Z,59.68
2017-12-29T12:25:45.476Z,59.39
2017-12-29T12:26:55.385Z,59.49
2017-12-29T12:28:05.578Z,59.49
2017-12-29T12:29:16.740Z,59.2
2017-12-29T12:30:26.996Z,59.58
2017-12-29T12:31:36.924Z,59.77
2017-12-29T12:32:46.810Z,59.68
2017-12-29T12:33:57.113Z,59.68
2017-12-29T12:35:07.269Z,59.96
2017-12-29T12:36:17.436Z,60.06
2017-12-29T12:37:27.691Z,60.13
2017-12-29T12:38:37.738Z,60.69
2017-12-29T12:39:47.887Z,60.41
2017-12-29T12:40:58.004Z,60.98
2017-12-29T12:42:08.281Z,60.6
2017-12-29T12:43:18.504Z,60.79
2017-12-29T12:44:28.785Z,60.69
2017-12-29T12:45:38.827Z,60.6
2017-12-29T12:46:49.051Z,61.17
2017-12-29T12:47:59.313Z,60.98
2017-12-29T12:49:09.769Z,60.98
2017-12-29T12:50:19.674Z,61.36
2017-12-29T12:51:29.862Z,61.26
2017-12-29T12:52:40.983Z,61.17
2017-12-29T12:53:50.870Z,61.55
2017-12-29T12:55:01.070Z,61.45
2017-12-29T12:56:11.011Z,61.55
2017-12-29T12:57:21.129Z,61.65
2017-12-29T12:58:31.151Z,61.93
2017-12-29T12:59:41.369Z,61.83
2017-12-29T13:00:51.549Z,61.74
2017-12-29T13:02:01.940Z,61.74
2017-12-29T13:03:12.184Z,61.74
2017-12-29T13:04:22.056Z,60.98
2017-12-29T13:05:32.180Z,61.17
2017-12-29T13:06:42.065Z,61.17
2017-12-29T13:07:52.239Z,61.36
2017-12-29T13:09:02.397Z,61.71
2017-12-29T13:10:12.228Z,61.9
2017-12-29T13:11:22.164Z,61.9
2017-12-29T13:12:32.470Z,61.99
2017-12-29T13:13:42.614Z,62.08
2017-12-29T13:14:52.732Z,61.8
2017-12-29T13:16:02.744Z,61.9
2017-12-29T13:17:12.974Z,61.9
2017-12-29T13:18:23.148Z,62.27
2017-12-29T13:19:33.319Z,62.18
2017-12-29T13:20:43.212Z,62.37
2017-12-29T13:21:53.342Z,62.37
2017-12-29T13:23:03.502Z,62.66
2017-12-29T13:24:13.407Z,62.75
2017-12-29T13:25:23.600Z,62.46
2017-12-29T13:26:33.737Z,62.46
2017-12-29T13:27:43.903Z,62.85
2017-12-29T13:28:54.068Z,62.56
2017-12-29T13:30:03.948Z,62.56
2017-12-29T13:31:14.109Z,63.23
2017-12-29T13:32:23.639Z,63.32
2017-12-29T13:33:33.774Z,63.32
2017-12-29T13:34:43.952Z,63.32
2017-12-29T13:35:54.136Z,63.29
2017-12-29T13:37:04.278Z,63.1
2017-12-29T13:38:14.440Z,63.1
2017-12-29T13:39:24.642Z,63.1
2017-12-29T13:40:34.811Z,63.2
2017-12-29T13:41:45.018Z,63.2
2017-12-29T13:42:54.927Z,63.29
2017-12-29T13:44:05.090Z,63.1
2017-12-29T13:45:15.058Z,63.67
2017-12-29T13:46:24.917Z,63.57
2017-12-29T13:47:34.539Z,63.39
2017-12-29T13:48:44.660Z,63.48
2017-12-29T13:49:54.826Z,63.48
2017-12-29T13:51:05.054Z,63.54
2017-12-29T13:52:15.239Z,63.54
2017-12-29T13:53:25.412Z,63.73
2017-12-29T13:54:35.584Z,63.64
2017-12-29T13:55:45.907Z,63.45
2017-12-29T13:56:56.049Z,63.82
2017-12-29T13:58:06.236Z,63.92
2017-12-29T13:59:16.685Z,64.01
2017-12-29T14:00:26.842Z,64.49
2017-12-29T14:01:36.981Z,64.49
2017-12-29T14:02:47.126Z,64.68
2017-12-29T14:03:57.366Z,64.4
2017-12-29T14:05:07.620Z,64.78
2017-12-29T14:06:17.551Z,65.34
2017-12-29T14:07:27.675Z,64.97
2017-12-29T14:08:37.793Z,65.44
2017-12-29T14:09:47.953Z,65.44
2017-12-29T14:10:59.096Z,64.97
2017-12-29T14:12:08.702Z,65.16
2017-12-29T14:13:18.813Z,65.25
2017-12-29T14:14:29.033Z,65.16
2017-12-29T14:15:38.914Z,65.44
2017-12-29T14:16:49.038Z,65.34
2017-12-29T14:17:59.176Z,65.53
2017-12-29T14:19:09.345Z,65.44
2017-12-29T14:20:19.543Z,65.06
2017-12-29T14:21:30.773Z,65.44
2017-12-29T14:22:40.887Z,65.25
2017-12-29T14:23:51.058Z,65.44
2017-12-29T14:25:01.261Z,65.72
2017-12-29T14:26:11.543Z,65.25
2017-12-29T14:27:21.406Z,65.44
2017-12-29T14:28:31.555Z,65.25
2017-12-29T14:29:41.386Z,65.25
2017-12-29T14:30:51.531Z,65.25
2017-12-29T14:32:01.734Z,65.25
2017-12-29T14:33:11.937Z,65.78
2017-12-29T14:34:22.158Z,65.44
2017-12-29T14:35:32.277Z,65.5
2017-12-29T14:36:42.418Z,65.22
2017-12-29T14:37:52.552Z,65.59
2017-12-29T14:39:02.673Z,65.59
2017-12-29T14:40:12.941Z,65.41
2017-12-29T14:41:24.061Z,65.31
2017-12-29T14:42:33.934Z,65.41
2017-12-29T14:43:43.834Z,65.5
2017-12-29T14:44:53.960Z,65.97
2017-12-29T14:46:04.155Z,65.78
2017-12-29T14:47:14.310Z,65.78
2017-12-29T14:48:24.436Z,66.26
2017-12-29T14:49:35.533Z,66.16
2017-12-29T14:50:45.716Z,66.45
2017-12-29T14:51:55.974Z,66.26
2017-12-29T14:53:05.869Z,66.54
2017-12-29T14:54:16.023Z,66.64
2017-12-29T14:55:26.175Z,66.64
2017-12-29T14:56:36.346Z,66.64
2017-12-29T14:57:46.596Z,67.02
2017-12-29T14:58:56.461Z,67.02
2017-12-29T15:00:06.689Z,67.11
2017-12-29T15:01:16.305Z,67.3
2017-12-29T15:02:27.424Z,67.4
2017-12-29T15:03:37.723Z,67.02
2017-12-29T15:04:47.870Z,67.21
2017-12-29T15:05:57.771Z,67.49
2017-12-29T15:07:07.710Z,67.4
2017-12-29T15:08:17.861Z,67.49